M I D A S
Marine Information and Data Acquisition System
Tripno 1652 of the Zeeleeuw from 2009-03-03 07:48:57 to 2009-03-03 15:26:41
Back to CruiseResearch ActivitiesStationsMapUnderway DataData graphs

EquipmentUnitsComment
TimeDGPSUTC
LatitudeDGPSDM.mWGS84
LongitudeDGPSDM.mWGS84
HeadingGyrodeg 
SOGDGPSknotsSpeed over ground
COGDGPSdegCourse over ground
DepthEcho soundermeters200 kHz
Missing or incorrect values are displayed as -999
Navigation data collected by the RV Zeeleeuw from 2009-03-03 07:41:01 to 2009-03-03 15:35:30
                                                                                    Next 1000 lines
Time Latitude Longitude Heading SOG COG Depth
2009-03-03 07:41:10 51°13.661 2°55.957 114.5 0.6 300 6.2
2009-03-03 07:41:16 51°13.661 2°55.956 114.3 0.8 302 6.1
2009-03-03 07:41:21 51°13.662 2°55.954 114.2 0.9 296 6.1
2009-03-03 07:41:25 51°13.663 2°55.952 114.2 1.1 299 6
2009-03-03 07:41:30 51°13.664 2°55.95 114.2 1.3 299 6.1
2009-03-03 07:41:36 51°13.665 2°55.946 114.2 1.4 299 6.1
2009-03-03 07:41:41 51°13.666 2°55.943 114.4 1.6 299 -999
2009-03-03 07:41:47 51°13.667 2°55.94 114.6 1.7 300 -999
2009-03-03 07:41:52 51°13.668 2°55.936 114.6 1.8 299 -999
2009-03-03 07:41:58 51°13.67 2°55.932 114.4 2 299 -999
2009-03-03 07:42:03 51°13.671 2°55.928 114 2.1 298 -999
2009-03-03 07:42:09 51°13.673 2°55.923 113.3 2.2 297 -999
2009-03-03 07:42:14 51°13.675 2°55.918 112.6 2.3 295 -999
2009-03-03 07:42:20 51°13.676 2°55.912 111.6 2.4 294 -999
2009-03-03 07:42:25 51°13.677 2°55.907 110.4 2.5 293 -999
2009-03-03 07:42:29 51°13.678 2°55.903 109.5 2.5 292 -999
2009-03-03 07:42:34 51°13.679 2°55.898 108.8 2.6 291 -999
2009-03-03 07:42:39 51°13.681 2°55.892 107.9 2.7 290 -999
2009-03-03 07:42:45 51°13.682 2°55.885 107 2.8 290 -999
2009-03-03 07:42:49 51°13.683 2°55.881 106.3 2.8 288 -999
2009-03-03 07:42:54 51°13.685 2°55.875 105.4 2.8 288 -999
2009-03-03 07:43:00 51°13.686 2°55.868 104.6 2.9 287 -999
2009-03-03 07:43:04 51°13.687 2°55.863 103.5 2.8 286 -999
2009-03-03 07:43:09 51°13.688 2°55.857 102.4 2.8 286 -999
2009-03-03 07:43:14 51°13.69 2°55.851 101.5 2.8 286 -999
2009-03-03 07:43:19 51°13.69 2°55.845 100.8 2.9 284 -999
2009-03-03 07:43:24 51°13.691 2°55.838 99.8 2.9 284 -999
2009-03-03 07:43:29 51°13.692 2°55.832 98.5 2.9 283 -999
2009-03-03 07:43:34 51°13.693 2°55.826 97.3 2.9 283 -999
2009-03-03 07:43:40 51°13.694 2°55.818 96.2 2.9 281 -999
2009-03-03 07:43:44 51°13.695 2°55.814 94.5 2.9 282 -999
2009-03-03 07:43:49 51°13.695 2°55.807 93.4 2.9 280 -999
2009-03-03 07:43:54 51°13.695 2°55.801 92.3 2.9 278 -999
2009-03-03 07:44:00 51°13.696 2°55.793 91 2.9 277 -999
2009-03-03 07:44:05 51°13.696 2°55.787 89.5 2.7 276 -999
2009-03-03 07:44:09 51°13.697 2°55.783 87.9 2.6 276 -999
2009-03-03 07:44:14 51°13.698 2°55.777 86.8 2.5 276 -999
2009-03-03 07:44:20 51°13.698 2°55.772 85.7 2.2 277 -999
2009-03-03 07:44:25 51°13.699 2°55.768 83.9 1.6 281 -999
2009-03-03 07:44:29 51°13.699 2°55.766 81.4 1 288 -999
2009-03-03 07:44:34 51°13.7 2°55.765 78.2 0.6 322 -999
2009-03-03 07:44:40 51°13.701 2°55.765 72.8 0.5 8 -999
2009-03-03 07:44:45 51°13.702 2°55.766 66.6 0.9 25 -999
2009-03-03 07:44:49 51°13.703 2°55.767 58.9 1.3 34 -999
2009-03-03 07:44:54 51°13.705 2°55.769 53.5 1.5 34 -999
2009-03-03 07:45:00 51°13.707 2°55.771 46.7 1.4 27 -999
2009-03-03 07:45:05 51°13.709 2°55.772 41.5 1.2 25 -999
2009-03-03 07:45:09 51°13.71 2°55.773 37.1 1 20 -999
2009-03-03 07:45:14 51°13.711 2°55.773 34.4 0.6 7 5.1
2009-03-03 07:45:19 51°13.711 2°55.773 31 0.3 329 -999
2009-03-03 07:45:25 51°13.711 2°55.772 27.8 0.3 239 -999
2009-03-03 07:45:29 51°13.71 2°55.772 24.3 0.7 220 5
2009-03-03 07:45:34 51°13.709 2°55.77 22.8 0.9 215 -999
2009-03-03 07:45:39 51°13.708 2°55.769 21.1 1.1 209 5.1
2009-03-03 07:45:44 51°13.707 2°55.768 19.4 1.1 209 5.4
2009-03-03 07:45:49 51°13.705 2°55.767 17.1 1 205 8.3
2009-03-03 07:45:54 51°13.704 2°55.766 15.7 1 209 -999
2009-03-03 07:46:00 51°13.703 2°55.765 14.3 0.7 207 -999
2009-03-03 07:46:04 51°13.703 2°55.764 12.9 0.5 227 -999
2009-03-03 07:46:09 51°13.703 2°55.764 11.1 0.2 265 -999
2009-03-03 07:46:14 51°13.703 2°55.764 8.8 0.4 320 -999
2009-03-03 07:46:20 51°13.704 2°55.763 5.3 0.7 347 -999
2009-03-03 07:46:25 51°13.705 2°55.762 1.4 1 346 -999
2009-03-03 07:46:29 51°13.707 2°55.762 355.7 1.3 347 -999
2009-03-03 07:46:34 51°13.709 2°55.761 351.8 1.5 344 -999
2009-03-03 07:46:39 51°13.711 2°55.76 347.7 1.8 340 5.2
2009-03-03 07:46:44 51°13.713 2°55.758 343.4 2.1 335 5
2009-03-03 07:46:49 51°13.716 2°55.756 338 2.4 332 4.8
2009-03-03 07:46:54 51°13.72 2°55.752 332.9 2.7 329 4.8
2009-03-03 07:47:00 51°13.724 2°55.748 328.6 3.1 325 5.1
2009-03-03 07:47:05 51°13.728 2°55.743 325.1 3.5 323 -999
2009-03-03 07:47:09 51°13.731 2°55.739 323.1 3.9 322 -999
2009-03-03 07:47:14 51°13.736 2°55.733 322.1 4.2 323 11.3
2009-03-03 07:47:19 51°13.741 2°55.726 322 4.9 321 11.3
2009-03-03 07:47:24 51°13.747 2°55.719 322 5.6 323 11.1
2009-03-03 07:47:29 51°13.754 2°55.71 323 6.3 322 10.7
2009-03-03 07:47:33 51°13.76 2°55.703 323.1 6.8 323 10.4
2009-03-03 07:47:38 51°13.768 2°55.694 323.7 7.2 324 10.2
2009-03-03 07:47:42 51°13.775 2°55.686 325.8 7.5 326 10.2
2009-03-03 07:47:48 51°13.786 2°55.675 327.8 7.9 327 10.2
2009-03-03 07:47:52 51°13.794 2°55.667 328.9 8.2 328 10.2
2009-03-03 07:47:57 51°13.804 2°55.658 330 8.5 331 10.2
2009-03-03 07:48:02 51°13.815 2°55.648 331.7 8.7 331 10.2
2009-03-03 07:48:07 51°13.826 2°55.639 333.4 8.9 333 10.2
2009-03-03 07:48:11 51°13.835 2°55.632 334.6 9.1 333 10
2009-03-03 07:48:16 51°13.846 2°55.623 334.7 9.2 334 10
2009-03-03 07:48:21 51°13.858 2°55.614 334.9 9.4 334 10
2009-03-03 07:48:26 51°13.87 2°55.605 335.5 9.5 335 9.9
2009-03-03 07:48:30 51°13.879 2°55.597 335.6 9.6 334 9.9
2009-03-03 07:48:36 51°13.894 2°55.586 335.7 9.8 335 10
2009-03-03 07:48:41 51°13.906 2°55.577 336.3 9.8 335 10
2009-03-03 07:48:46 51°13.919 2°55.568 336.2 9.9 335 10
2009-03-03 07:48:50 51°13.929 2°55.56 336.2 9.9 335 10
2009-03-03 07:48:56 51°13.944 2°55.55 336.8 9.9 335 10.1
2009-03-03 07:49:01 51°13.956 2°55.54 336.6 10 334 10
2009-03-03 07:49:06 51°13.969 2°55.531 336.6 10 336 10
2009-03-03 07:49:10 51°13.979 2°55.524 337.1 10 336 10.1
2009-03-03 07:49:16 51°13.994 2°55.512 337.1 10 335 10
2009-03-03 07:49:21 51°14.007 2°55.504 337.6 10 337 10
2009-03-03 07:49:26 51°14.019 2°55.495 338.3 10 336 10
2009-03-03 07:49:30 51°14.029 2°55.487 337.5 10 335 10
2009-03-03 07:49:36 51°14.044 2°55.476 337.4 10 336 9.9
2009-03-03 07:49:41 51°14.057 2°55.468 338.4 10 337 10
2009-03-03 07:49:46 51°14.07 2°55.458 337.9 10.1 334 10.1
2009-03-03 07:49:50 51°14.08 2°55.451 337.5 10.1 336 10
2009-03-03 07:49:56 51°14.095 2°55.439 336.7 10 333 10.1
2009-03-03 07:50:01 51°14.107 2°55.43 336.1 10 334 10.1
2009-03-03 07:50:05 51°14.117 2°55.421 334.8 10 332 10.1
2009-03-03 07:50:10 51°14.129 2°55.41 333.2 10 331 10.2
2009-03-03 07:50:16 51°14.144 2°55.398 333.1 10.1 331 10.1
2009-03-03 07:50:21 51°14.156 2°55.386 332 10.1 329 10.2
2009-03-03 07:50:25 51°14.165 2°55.376 330.1 10.2 327 10.2
2009-03-03 07:50:31 51°14.179 2°55.362 329.2 10.2 327 10.2
2009-03-03 07:50:36 51°14.191 2°55.349 328.4 10.3 325 10.2
2009-03-03 07:50:41 51°14.203 2°55.335 326.9 10.3 324 10.3
2009-03-03 07:50:46 51°14.214 2°55.322 326.2 10.3 324 10.3
2009-03-03 07:50:50 51°14.223 2°55.311 325.1 10.3 322 10.4
2009-03-03 07:50:56 51°14.236 2°55.293 323.5 10.3 320 10.4
2009-03-03 07:51:01 51°14.247 2°55.278 322.1 10.4 319 10.3
2009-03-03 07:51:06 51°14.258 2°55.263 320.2 10.4 317 10.4
2009-03-03 07:51:10 51°14.266 2°55.25 318 10.4 315 10.4
2009-03-03 07:51:16 51°14.278 2°55.23 317 10.5 315 10.3
2009-03-03 07:51:21 51°14.288 2°55.213 315.5 10.5 313 10.4
2009-03-03 07:51:26 51°14.298 2°55.196 314.6 10.6 313 10.7
2009-03-03 07:51:30 51°14.307 2°55.183 314.4 10.7 313 10.4
2009-03-03 07:51:36 51°14.319 2°55.162 314.2 10.7 313 10.4
2009-03-03 07:51:41 51°14.329 2°55.144 314.1 10.8 313 10.4
2009-03-03 07:51:46 51°14.339 2°55.127 314.3 10.8 313 10.5
2009-03-03 07:51:50 51°14.347 2°55.113 314 10.9 313 10.6
2009-03-03 07:51:56 51°14.36 2°55.092 314.3 10.9 314 10.6
2009-03-03 07:52:01 51°14.371 2°55.075 315.8 10.9 315 10.6
2009-03-03 07:52:06 51°14.381 2°55.058 316.3 10.9 314 10.7
2009-03-03 07:52:11 51°14.392 2°55.041 316.3 11 315 10.7
2009-03-03 07:52:16 51°14.403 2°55.024 316.3 11 315 10.6
2009-03-03 07:52:21 51°14.414 2°55.007 317.4 11 318 10.4
2009-03-03 07:52:26 51°14.426 2°54.992 320.7 11 320 10.5
2009-03-03 07:52:31 51°14.438 2°54.977 324 10.9 322 10.6
2009-03-03 07:52:36 51°14.45 2°54.963 326.2 11 323 10.7
2009-03-03 07:52:41 51°14.461 2°54.945 323.9 11.1 317 10.7
2009-03-03 07:52:46 51°14.473 2°54.931 323.8 11.1 322 10.6
2009-03-03 07:52:50 51°14.482 2°54.917 323.2 11.1 316 10.5
2009-03-03 07:52:56 51°14.496 2°54.897 322.3 11.2 319 10.5
2009-03-03 07:53:01 51°14.507 2°54.879 321.6 11.3 314 10.5
2009-03-03 07:53:06 51°14.518 2°54.862 320.2 11.4 316 10.5
2009-03-03 07:53:10 51°14.527 2°54.848 319.7 11.5 314 10.5
2009-03-03 07:53:16 51°14.541 2°54.825 318.7 11.6 314 10.3
2009-03-03 07:53:21 51°14.552 2°54.807 317.8 11.7 312 10.2
2009-03-03 07:53:25 51°14.56 2°54.791 317 11.7 312 10.2
2009-03-03 07:53:30 51°14.571 2°54.772 316.6 11.8 312 10.2
2009-03-03 07:53:36 51°14.584 2°54.749 316 11.9 312 10.1
2009-03-03 07:53:41 51°14.595 2°54.729 315.7 12 312 10.1
2009-03-03 07:53:46 51°14.607 2°54.709 315.5 12.1 311 10
2009-03-03 07:53:51 51°14.618 2°54.689 315.4 12.2 312 10
2009-03-03 07:53:56 51°14.629 2°54.668 315.3 12.3 311 10
2009-03-03 07:54:01 51°14.64 2°54.647 314.7 12.4 311 10
2009-03-03 07:54:05 51°14.649 2°54.631 314.5 12.4 311 9.9
2009-03-03 07:54:10 51°14.661 2°54.61 314.7 12.5 312 10
2009-03-03 07:54:16 51°14.674 2°54.585 315.1 12.5 312 10.1
2009-03-03 07:54:21 51°14.686 2°54.564 315.1 12.6 311 10.2
2009-03-03 07:54:26 51°14.698 2°54.544 315.1 12.6 312 10
2009-03-03 07:54:31 51°14.709 2°54.523 315.1 12.5 311 10.3
2009-03-03 07:54:36 51°14.72 2°54.502 314.4 12.5 310 10.2
2009-03-03 07:54:41 51°14.731 2°54.48 313.2 12.6 309 10.2
2009-03-03 07:54:46 51°14.742 2°54.458 312.5 12.5 308 10.3
2009-03-03 07:54:50 51°14.75 2°54.44 310.9 12.5 304 10.3
2009-03-03 07:54:56 51°14.76 2°54.411 305.3 12.5 299 10.3
2009-03-03 07:55:01 51°14.768 2°54.387 302.7 12.4 297 10.2
2009-03-03 07:55:06 51°14.775 2°54.363 299.8 12.4 295 10.5
2009-03-03 07:55:10 51°14.781 2°54.342 295.5 12.4 291 10.6
2009-03-03 07:55:16 51°14.788 2°54.311 292.7 12.4 290 10.6
2009-03-03 07:55:21 51°14.793 2°54.285 290.7 12.5 288 10.6
2009-03-03 07:55:25 51°14.797 2°54.264 288.7 12.4 287 10.5
2009-03-03 07:55:30 51°14.801 2°54.237 287.3 12.4 285 9.9
2009-03-03 07:55:36 51°14.807 2°54.205 285.8 12.4 284 10.2
2009-03-03 07:55:41 51°14.81 2°54.179 284.6 12.4 283 10.2
2009-03-03 07:55:46 51°14.814 2°54.152 283.7 12.5 283 10
2009-03-03 07:55:50 51°14.817 2°54.13 283 12.5 282 9.8
2009-03-03 07:55:56 51°14.821 2°54.098 282.4 12.5 282 9.8
2009-03-03 07:56:01 51°14.825 2°54.071 282.1 12.5 281 9.7
2009-03-03 07:56:06 51°14.828 2°54.044 281.5 12.5 281 9.7
2009-03-03 07:56:10 51°14.831 2°54.022 281.3 12.5 281 9.7
2009-03-03 07:56:16 51°14.835 2°53.99 281.1 12.5 281 9.7
2009-03-03 07:56:21 51°14.838 2°53.963 281.5 12.5 282 9.7
2009-03-03 07:56:25 51°14.841 2°53.941 281.8 12.5 282 9.7
2009-03-03 07:56:30 51°14.845 2°53.914 282.2 12.6 282 9.9
2009-03-03 07:56:36 51°14.849 2°53.881 282.3 12.5 282 9.9
2009-03-03 07:56:41 51°14.853 2°53.854 282.3 12.6 283 9.8
2009-03-03 07:56:46 51°14.857 2°53.827 282.4 12.6 282 9.9
2009-03-03 07:56:50 51°14.86 2°53.805 282.4 12.6 282 10
2009-03-03 07:56:56 51°14.864 2°53.772 282.2 12.5 282 9.9
2009-03-03 07:57:01 51°14.868 2°53.745 282.4 12.5 283 9.9
2009-03-03 07:57:06 51°14.872 2°53.719 282.9 12.5 283 10.1
2009-03-03 07:57:11 51°14.876 2°53.692 283 12.4 284 9.8
2009-03-03 07:57:16 51°14.881 2°53.666 284.7 12.5 287 10
2009-03-03 07:57:21 51°14.886 2°53.639 286.7 12.4 287 10.1
2009-03-03 07:57:25 51°14.89 2°53.619 288.1 12.4 289 10.1
2009-03-03 07:57:30 51°14.896 2°53.593 289.5 12.4 289 10.1
2009-03-03 07:57:36 51°14.904 2°53.562 290.8 12.5 292 10.2
2009-03-03 07:57:41 51°14.91 2°53.536 291.6 12.5 291 9.9
2009-03-03 07:57:46 51°14.917 2°53.511 292.6 12.5 293 9.9
2009-03-03 07:57:50 51°14.922 2°53.49 292.9 12.5 291 10
2009-03-03 07:57:56 51°14.929 2°53.459 292 12.5 290 10
2009-03-03 07:58:01 51°14.934 2°53.433 291.6 12.5 290 10
2009-03-03 07:58:05 51°14.939 2°53.412 292.4 12.5 291 10
2009-03-03 07:58:10 51°14.946 2°53.386 293.2 12.5 291 10.1
2009-03-03 07:58:16 51°14.953 2°53.356 293.9 12.4 292 10.1
2009-03-03 07:58:21 51°14.96 2°53.33 294.6 12.4 292 10.2
2009-03-03 07:58:26 51°14.966 2°53.305 294.8 12.4 293 10.2
2009-03-03 07:58:31 51°14.973 2°53.28 295.3 12.4 293 10.3
2009-03-03 07:58:36 51°14.98 2°53.254 295.6 12.4 292 10.2
2009-03-03 07:58:41 51°14.987 2°53.229 295.6 12.4 293 10.2
2009-03-03 07:58:45 51°14.992 2°53.209 295.2 12.4 292 10.2
2009-03-03 07:58:50 51°14.998 2°53.183 294.1 12.4 291 10.2
2009-03-03 07:58:56 51°15.005 2°53.153 293.9 12.4 291 10.2
2009-03-03 07:59:01 51°15.011 2°53.127 293.2 12.4 290 10.2
2009-03-03 07:59:05 51°15.016 2°53.106 292.6 12.4 290 10.1
2009-03-03 07:59:11 51°15.023 2°53.075 292.4 12.4 290 10.2
2009-03-03 07:59:16 51°15.029 2°53.049 292.4 12.4 290 10.2
2009-03-03 07:59:21 51°15.034 2°53.023 292 12.4 289 10.3
2009-03-03 07:59:25 51°15.039 2°53.003 291.7 12.4 289 10.3
2009-03-03 07:59:31 51°15.045 2°52.971 290.8 12.5 288 10.5
2009-03-03 07:59:36 51°15.051 2°52.945 290.1 12.5 288 10.4
2009-03-03 07:59:41 51°15.056 2°52.919 290 12.5 287 10.5
2009-03-03 07:59:45 51°15.06 2°52.898 289.7 12.5 287 10.5
2009-03-03 07:59:50 51°15.065 2°52.871 289.6 12.5 288 10.6
2009-03-03 07:59:56 51°15.071 2°52.84 289.7 12.5 287 10.6
2009-03-03 08:00:01 51°15.077 2°52.814 289.9 12.5 288 10.7
2009-03-03 08:00:05 51°15.081 2°52.793 290.2 12.5 288 10.7
2009-03-03 08:00:10 51°15.086 2°52.766 289.9 12.5 288 10.8
2009-03-03 08:00:16 51°15.093 2°52.735 289.9 12.5 288 10.8
2009-03-03 08:00:21 51°15.098 2°52.708 289.9 12.5 288 10.7
2009-03-03 08:00:26 51°15.103 2°52.682 289.8 12.5 288 10.8
2009-03-03 08:00:30 51°15.107 2°52.661 289.8 12.5 288 10.8
2009-03-03 08:00:36 51°15.114 2°52.629 289.9 12.5 288 10.9
2009-03-03 08:00:41 51°15.119 2°52.603 289.9 12.5 288 10.9
2009-03-03 08:00:45 51°15.123 2°52.582 289.9 12.5 288 10.9
2009-03-03 08:00:50 51°15.129 2°52.556 290.2 12.5 288 10.9
2009-03-03 08:00:56 51°15.135 2°52.524 290.6 12.5 289 10.9
2009-03-03 08:01:01 51°15.141 2°52.498 291 12.5 289 11
2009-03-03 08:01:06 51°15.146 2°52.472 291 12.5 289 10.9
2009-03-03 08:01:11 51°15.152 2°52.445 291.1 12.5 289 10.9
2009-03-03 08:01:16 51°15.158 2°52.419 291.1 12.5 289 11
2009-03-03 08:01:21 51°15.163 2°52.393 291.1 12.5 289 11
2009-03-03 08:01:25 51°15.168 2°52.372 291.1 12.5 289 11
2009-03-03 08:01:30 51°15.173 2°52.346 291.1 12.5 289 11
2009-03-03 08:01:36 51°15.18 2°52.314 291 12.6 289 11.1
2009-03-03 08:01:41 51°15.186 2°52.288 290.9 12.6 289 11.1
2009-03-03 08:01:46 51°15.192 2°52.262 291.3 12.6 290 11.2
2009-03-03 08:01:50 51°15.196 2°52.241 291.6 12.6 290 11.2
2009-03-03 08:01:56 51°15.203 2°52.209 291.6 12.5 289 11.2
2009-03-03 08:02:01 51°15.209 2°52.183 291.1 12.6 289 11.3
2009-03-03 08:02:05 51°15.213 2°52.162 291.1 12.6 290 11.4
2009-03-03 08:02:11 51°15.22 2°52.131 291.4 12.6 289 11.4
2009-03-03 08:02:16 51°15.226 2°52.104 291.5 12.6 289 11.5
2009-03-03 08:02:21 51°15.232 2°52.078 291.4 12.6 288 11.5
2009-03-03 08:02:26 51°15.237 2°52.051 290.8 12.6 287 11.5
2009-03-03 08:02:30 51°15.24 2°52.03 288.6 12.6 285 11.6
2009-03-03 08:02:36 51°15.247 2°51.998 288.2 12.6 287 11.6
2009-03-03 08:02:41 51°15.251 2°51.971 287.6 12.7 284 11.7
2009-03-03 08:02:45 51°15.255 2°51.949 286.9 12.6 286 11.7
2009-03-03 08:02:50 51°15.259 2°51.922 286.6 12.7 284 11.8
2009-03-03 08:02:56 51°15.264 2°51.89 285.8 12.7 284 11.8
2009-03-03 08:03:01 51°15.268 2°51.863 285.6 12.7 284 11.8
2009-03-03 08:03:06 51°15.273 2°51.835 285.6 12.7 284 11.9
2009-03-03 08:03:10 51°15.276 2°51.814 285.5 12.7 283 12
2009-03-03 08:03:16 51°15.281 2°51.781 285.3 12.7 284 12
2009-03-03 08:03:21 51°15.285 2°51.754 285.2 12.7 284 12.1
2009-03-03 08:03:26 51°15.289 2°51.726 285.2 12.7 284 12.1
2009-03-03 08:03:31 51°15.293 2°51.699 285.3 12.7 284 12.1
2009-03-03 08:03:36 51°15.298 2°51.672 285.3 12.7 284 12.2
2009-03-03 08:03:41 51°15.302 2°51.645 285.3 12.7 284 12.2
2009-03-03 08:03:45 51°15.305 2°51.623 285.3 12.7 284 12.2
2009-03-03 08:03:50 51°15.309 2°51.596 285.3 12.7 283 12.3
2009-03-03 08:03:56 51°15.314 2°51.563 285 12.8 284 12.3
2009-03-03 08:04:01 51°15.318 2°51.535 284.9 12.8 284 12.3
2009-03-03 08:04:05 51°15.322 2°51.513 285.2 12.7 284 12.5
2009-03-03 08:04:11 51°15.327 2°51.481 285.1 12.7 284 12.5
2009-03-03 08:04:16 51°15.331 2°51.453 284.9 12.7 283 12.5
2009-03-03 08:04:21 51°15.335 2°51.426 284.9 12.7 284 12.6
2009-03-03 08:04:25 51°15.339 2°51.404 284.8 12.7 284 12.5
2009-03-03 08:04:31 51°15.343 2°51.371 284.6 12.7 283 12.6
2009-03-03 08:04:36 51°15.348 2°51.344 284.6 12.7 284 12.6
2009-03-03 08:04:41 51°15.352 2°51.317 284.6 12.7 284 12.7
2009-03-03 08:04:46 51°15.356 2°51.289 284.6 12.8 283 12.7
2009-03-03 08:04:50 51°15.359 2°51.268 284.4 12.7 283 12.7
2009-03-03 08:04:56 51°15.363 2°51.235 283.9 12.6 281 12.7
2009-03-03 08:05:01 51°15.367 2°51.207 283 12.6 280 12.7
2009-03-03 08:05:05 51°15.368 2°51.185 279.3 12.6 275 12.7
2009-03-03 08:05:10 51°15.37 2°51.158 277.3 12.6 277 12.8
2009-03-03 08:05:16 51°15.372 2°51.124 275.9 12.6 272 12.8
2009-03-03 08:05:21 51°15.373 2°51.097 274 12.6 274 12.8
2009-03-03 08:05:26 51°15.373 2°51.069 273.2 12.6 272 12.8
2009-03-03 08:05:31 51°15.374 2°51.041 272.1 12.6 271 12.8
2009-03-03 08:05:36 51°15.374 2°51.013 271.5 12.6 271 12.7
2009-03-03 08:05:41 51°15.374 2°50.985 270.7 12.6 270 12.8
2009-03-03 08:05:45 51°15.374 2°50.963 270 12.6 270 12.8
2009-03-03 08:05:50 51°15.373 2°50.935 269.6 12.6 269 12.7
2009-03-03 08:05:56 51°15.373 2°50.902 269.3 12.6 269 12.8
2009-03-03 08:06:01 51°15.373 2°50.874 269.2 12.6 269 12.8
2009-03-03 08:06:05 51°15.373 2°50.852 268.8 12.6 269 12.8
2009-03-03 08:06:11 51°15.372 2°50.819 268.8 12.6 269 12.8
2009-03-03 08:06:16 51°15.372 2°50.791 268.9 12.6 269 12.9
2009-03-03 08:06:21 51°15.372 2°50.763 268.8 12.6 269 12.8
2009-03-03 08:06:26 51°15.371 2°50.735 268.3 12.6 269 12.8
2009-03-03 08:06:31 51°15.371 2°50.707 268.5 12.6 269 12.8
2009-03-03 08:06:36 51°15.371 2°50.679 268.8 12.6 268 12.8
2009-03-03 08:06:41 51°15.369 2°50.652 267.5 12.5 266 12.8
2009-03-03 08:06:45 51°15.369 2°50.63 266.7 12.6 267 12.8
2009-03-03 08:06:50 51°15.368 2°50.602 266.1 12.5 266 12.9
2009-03-03 08:06:56 51°15.366 2°50.569 265.2 12.6 266 12.9
2009-03-03 08:07:01 51°15.365 2°50.541 265.3 12.5 265 12.9
2009-03-03 08:07:06 51°15.363 2°50.514 264.7 12.5 265 12.9
2009-03-03 08:07:10 51°15.362 2°50.492 264.6 12.5 266 12.9
2009-03-03 08:07:16 51°15.36 2°50.459 264.1 12.5 265 12.9
2009-03-03 08:07:21 51°15.359 2°50.431 263.8 12.5 265 12.9
2009-03-03 08:07:26 51°15.357 2°50.403 263.8 12.5 264 12.9
2009-03-03 08:07:30 51°15.355 2°50.381 264.1 12.5 265 12.8
2009-03-03 08:07:36 51°15.354 2°50.348 264.3 12.5 265 12.9
2009-03-03 08:07:41 51°15.352 2°50.321 264.7 12.5 265 12.9
2009-03-03 08:07:45 51°15.351 2°50.299 264.7 12.5 265 13
2009-03-03 08:07:50 51°15.35 2°50.271 264.7 12.5 265 12.9
2009-03-03 08:07:56 51°15.348 2°50.238 264.3 12.5 265 12.9
2009-03-03 08:08:01 51°15.346 2°50.211 264.3 12.5 265 12.9
2009-03-03 08:08:06 51°15.345 2°50.183 264.6 12.5 265 12.9
2009-03-03 08:08:11 51°15.343 2°50.155 264.5 12.5 265 12.9
2009-03-03 08:08:16 51°15.342 2°50.128 264.4 12.5 265 13
2009-03-03 08:08:21 51°15.34 2°50.1 264.4 12.5 265 13
2009-03-03 08:08:25 51°15.339 2°50.078 264.4 12.5 265 13
2009-03-03 08:08:30 51°15.337 2°50.051 264.4 12.5 265 13
2009-03-03 08:08:36 51°15.335 2°50.018 264.7 12.5 265 13
2009-03-03 08:08:41 51°15.334 2°49.99 264.8 12.5 265 12.9
2009-03-03 08:08:45 51°15.333 2°49.968 264.7 12.5 265 13
2009-03-03 08:08:51 51°15.331 2°49.935 265 12.5 265 13
2009-03-03 08:08:56 51°15.329 2°49.907 265.1 12.5 264 13
2009-03-03 08:09:01 51°15.328 2°49.88 264.9 12.5 265 12.9
2009-03-03 08:09:06 51°15.327 2°49.852 265.1 12.5 265 13
2009-03-03 08:09:10 51°15.325 2°49.83 264.3 12.5 263 13
2009-03-03 08:09:16 51°15.323 2°49.797 263.7 12.5 264 12.9
2009-03-03 08:09:21 51°15.32 2°49.77 262.9 12.5 262 12.9
2009-03-03 08:09:25 51°15.319 2°49.748 262.7 12.5 264 12.9
2009-03-03 08:09:30 51°15.316 2°49.721 262.7 12.5 262 12.9
2009-03-03 08:09:36 51°15.314 2°49.688 262.5 12.5 263 12.9
2009-03-03 08:09:41 51°15.312 2°49.661 262.2 12.5 263 12.9
2009-03-03 08:09:46 51°15.31 2°49.633 262.4 12.5 263 12.9
2009-03-03 08:09:51 51°15.308 2°49.606 262.7 12.5 263 12.9
2009-03-03 08:09:56 51°15.306 2°49.578 263.1 12.5 264 12.9
2009-03-03 08:10:01 51°15.304 2°49.551 263.3 12.6 263 12.9
2009-03-03 08:10:05 51°15.302 2°49.529 263.1 12.5 263 12.9
2009-03-03 08:10:10 51°15.3 2°49.501 262.8 12.5 263 13.1
2009-03-03 08:10:16 51°15.297 2°49.468 262.8 12.6 263 13
2009-03-03 08:10:21 51°15.296 2°49.441 263.1 12.5 264 13
2009-03-03 08:10:25 51°15.294 2°49.419 263.3 12.5 264 12.9
2009-03-03 08:10:31 51°15.292 2°49.386 263.1 12.5 263 12.9
2009-03-03 08:10:36 51°15.29 2°49.358 263.4 12.5 265 12.9
2009-03-03 08:10:41 51°15.288 2°49.331 264.1 12.5 265 12.9
2009-03-03 08:10:46 51°15.287 2°49.303 264.9 12.5 265 12.9
2009-03-03 08:10:51 51°15.286 2°49.275 265.5 12.5 266 12.9
2009-03-03 08:10:56 51°15.285 2°49.248 265.9 12.5 266 13
2009-03-03 08:11:01 51°15.283 2°49.22 265.7 12.5 266 12.9
2009-03-03 08:11:05 51°15.282 2°49.198 265 12.5 264 13
2009-03-03 08:11:10 51°15.28 2°49.171 264.6 12.5 265 13
2009-03-03 08:11:16 51°15.278 2°49.138 264.5 12.5 265 13
2009-03-03 08:11:21 51°15.277 2°49.11 264.4 12.5 265 13.1
2009-03-03 08:11:25 51°15.275 2°49.088 264.2 12.5 264 13
2009-03-03 08:11:31 51°15.273 2°49.055 264 12.5 264 13
2009-03-03 08:11:36 51°15.272 2°49.027 263.8 12.5 264 13
2009-03-03 08:11:41 51°15.27 2°49 263.7 12.5 264 13
2009-03-03 08:11:46 51°15.268 2°48.972 263.7 12.5 264 13.1
2009-03-03 08:11:50 51°15.267 2°48.949 264.1 12.5 265 13.1
2009-03-03 08:11:56 51°15.266 2°48.916 265.4 12.5 266 13.1
2009-03-03 08:12:01 51°15.264 2°48.889 265.5 12.5 266 13
2009-03-03 08:12:05 51°15.264 2°48.867 266.3 12.5 267 13
2009-03-03 08:12:10 51°15.263 2°48.839 266.7 12.5 266 13.1
2009-03-03 08:12:16 51°15.262 2°48.806 266.7 12.6 267 13.1
2009-03-03 08:12:21 51°15.261 2°48.778 266.7 12.6 267 13.1
2009-03-03 08:12:26 51°15.26 2°48.751 267.3 12.6 268 13.1
2009-03-03 08:12:31 51°15.259 2°48.723 267.4 12.5 267 13.1
2009-03-03 08:12:36 51°15.258 2°48.695 267.1 12.6 266 13.1
2009-03-03 08:12:41 51°15.257 2°48.668 266.5 12.6 265 13.1
2009-03-03 08:12:45 51°15.256 2°48.645 266.1 12.6 266 13
2009-03-03 08:12:50 51°15.254 2°48.618 266.1 12.6 266 13.1
2009-03-03 08:12:56 51°15.252 2°48.584 266.1 12.6 265 13.1
2009-03-03 08:13:01 51°15.251 2°48.557 265.9 12.6 266 13
2009-03-03 08:13:05 51°15.25 2°48.534 266.4 12.6 266 12.9
2009-03-03 08:13:11 51°15.249 2°48.501 266.8 12.6 266 12.9
2009-03-03 08:13:16 51°15.248 2°48.473 266.7 12.6 265 12.8
2009-03-03 08:13:21 51°15.246 2°48.445 265.9 12.6 265 12.7
2009-03-03 08:13:26 51°15.244 2°48.418 264.9 12.6 264 12.6
2009-03-03 08:13:30 51°15.243 2°48.395 265 12.6 266 12.6
2009-03-03 08:13:36 51°15.242 2°48.362 265.5 12.6 265 12.5
2009-03-03 08:13:41 51°15.24 2°48.334 265.6 12.6 265 12.3
2009-03-03 08:13:46 51°15.239 2°48.307 266.2 12.6 266 12.1
2009-03-03 08:13:50 51°15.238 2°48.285 266.2 12.6 265 11.9
2009-03-03 08:13:56 51°15.236 2°48.251 266.2 12.6 266 11.9
2009-03-03 08:14:01 51°15.235 2°48.224 266.3 12.6 266 11.6
2009-03-03 08:14:05 51°15.234 2°48.201 265.9 12.6 265 11.5
2009-03-03 08:14:10 51°15.232 2°48.174 266 12.6 266 11.4
2009-03-03 08:14:16 51°15.231 2°48.14 266.1 12.6 265 11.3
2009-03-03 08:14:21 51°15.229 2°48.113 265.7 12.6 265 11.1
2009-03-03 08:14:26 51°15.227 2°48.085 264.9 12.6 264 10.9
2009-03-03 08:14:30 51°15.226 2°48.063 264.9 12.5 265 10.8
2009-03-03 08:14:36 51°15.224 2°48.03 264.5 12.5 263 10.6
2009-03-03 08:14:41 51°15.222 2°48.002 263.7 12.5 264 10.5
2009-03-03 08:14:46 51°15.219 2°47.975 263.6 12.5 263 10.4
2009-03-03 08:14:51 51°15.217 2°47.948 263.2 12.5 263 10.4
2009-03-03 08:14:56 51°15.215 2°47.92 263.3 12.5 263 10.2
2009-03-03 08:15:01 51°15.213 2°47.893 263.4 12.5 263 10.1
2009-03-03 08:15:05 51°15.212 2°47.871 263.3 12.5 263 10
2009-03-03 08:15:10 51°15.21 2°47.843 263.1 12.5 264 9.9
2009-03-03 08:15:16 51°15.208 2°47.81 263.6 12.5 264 9.8
2009-03-03 08:15:21 51°15.206 2°47.783 263.7 12.5 263 9.8
2009-03-03 08:15:25 51°15.204 2°47.761 263.6 12.5 264 9.5
2009-03-03 08:15:31 51°15.202 2°47.728 263.5 12.4 264 9.6
2009-03-03 08:15:36 51°15.2 2°47.7 263.5 12.4 264 9.6
2009-03-03 08:15:41 51°15.198 2°47.673 263.5 12.5 264 9.5
2009-03-03 08:15:46 51°15.197 2°47.646 263.8 12.4 265 9.5
2009-03-03 08:15:50 51°15.196 2°47.624 265 12.4 267 9.5
2009-03-03 08:15:56 51°15.196 2°47.591 267.8 12.5 269 9.4
2009-03-03 08:16:01 51°15.195 2°47.563 268.8 12.5 270 9.4
2009-03-03 08:16:05 51°15.196 2°47.541 270.6 12.5 272 9.4
2009-03-03 08:16:11 51°15.197 2°47.508 271.6 12.5 271 9.4
2009-03-03 08:16:16 51°15.198 2°47.481 272.4 12.5 274 9.4
2009-03-03 08:16:21 51°15.198 2°47.453 273.5 12.5 273 9.4
2009-03-03 08:16:26 51°15.2 2°47.425 274.1 12.5 274 9.5
2009-03-03 08:16:30 51°15.201 2°47.403 274.7 12.5 275 9.5
2009-03-03 08:16:36 51°15.202 2°47.37 275.1 12.5 275 9.6
2009-03-03 08:16:41 51°15.204 2°47.342 275.3 12.6 275 9.6
2009-03-03 08:16:46 51°15.206 2°47.314 275.8 12.6 275 9.7
2009-03-03 08:16:51 51°15.207 2°47.287 275.9 12.6 275 9.7
2009-03-03 08:16:56 51°15.209 2°47.259 276.2 12.6 275 9.8
2009-03-03 08:17:01 51°15.21 2°47.231 275.8 12.6 275 9.8
2009-03-03 08:17:05 51°15.212 2°47.209 275.5 12.6 275 9.9
2009-03-03 08:17:10 51°15.213 2°47.181 274.9 12.6 274 10
2009-03-03 08:17:16 51°15.214 2°47.148 274.5 12.7 275 10.1
2009-03-03 08:17:21 51°15.216 2°47.12 275 12.7 274 10.2
2009-03-03 08:17:26 51°15.217 2°47.092 275.2 12.7 275 10.2
2009-03-03 08:17:31 51°15.218 2°47.064 275.3 12.7 275 10.3
2009-03-03 08:17:36 51°15.22 2°47.036 275.5 12.7 275 10.5
2009-03-03 08:17:41 51°15.221 2°47.008 275.4 12.7 275 10.5
2009-03-03 08:17:46 51°15.222 2°46.98 275.2 12.7 274 10.6
2009-03-03 08:17:50 51°15.223 2°46.958 274.9 12.7 274 10.7
2009-03-03 08:17:56 51°15.225 2°46.924 274.6 12.7 274 10.9
2009-03-03 08:18:01 51°15.226 2°46.896 274.4 12.7 274 10.9
2009-03-03 08:18:06 51°15.227 2°46.868 274.4 12.7 274 11
2009-03-03 08:18:10 51°15.228 2°46.846 274.2 12.7 273 11.1
2009-03-03 08:18:16 51°15.229 2°46.812 274.3 12.7 274 11.2
2009-03-03 08:18:21 51°15.23 2°46.784 274.3 12.7 273 11.4
2009-03-03 08:18:25 51°15.231 2°46.762 274 12.8 273 11.5
2009-03-03 08:18:31 51°15.232 2°46.728 273.8 12.8 273 11.6
2009-03-03 08:18:36 51°15.233 2°46.7 273.7 12.8 273 11.7
2009-03-03 08:18:41 51°15.234 2°46.672 273.7 12.8 273 11.7
2009-03-03 08:18:46 51°15.235 2°46.644 273.7 12.7 273 11.9
2009-03-03 08:18:51 51°15.235 2°46.615 273.7 12.8 272 12
2009-03-03 08:18:56 51°15.236 2°46.587 272.7 12.8 272 12.1
2009-03-03 08:19:01 51°15.236 2°46.559 272.7 12.8 272 12.2
2009-03-03 08:19:05 51°15.237 2°46.536 272.4 12.8 271 12.4
2009-03-03 08:19:10 51°15.237 2°46.508 272.1 12.8 271 12.5
2009-03-03 08:19:16 51°15.237 2°46.474 271.7 12.8 271 12.6
2009-03-03 08:19:21 51°15.238 2°46.446 271.7 12.7 271 12.8
2009-03-03 08:19:26 51°15.238 2°46.418 271.8 12.7 271 12.8
2009-03-03 08:19:31 51°15.238 2°46.39 270.8 12.7 269 13
2009-03-03 08:19:36 51°15.238 2°46.362 270.1 12.7 269 13.1
2009-03-03 08:19:41 51°15.237 2°46.334 269.4 12.7 269 13.3
2009-03-03 08:19:46 51°15.237 2°46.306 269.8 12.7 270 13.4
2009-03-03 08:19:50 51°15.237 2°46.283 270.5 12.7 270 13.5
2009-03-03 08:19:56 51°15.237 2°46.249 270.6 12.7 270 13.6
2009-03-03 08:20:01 51°15.237 2°46.221 270.8 12.7 270 13.8
2009-03-03 08:20:05 51°15.237 2°46.199 271.3 12.8 270 13.9
2009-03-03 08:20:11 51°15.237 2°46.165 271.4 12.8 270 13.9
2009-03-03 08:20:16 51°15.238 2°46.136 271.3 12.8 270 14
2009-03-03 08:20:21 51°15.237 2°46.108 270.8 12.8 270 14.1
2009-03-03 08:20:25 51°15.238 2°46.085 271.1 12.8 271 14.2
2009-03-03 08:20:30 51°15.238 2°46.057 271.3 12.8 270 14.2
2009-03-03 08:20:36 51°15.238 2°46.023 271.3 12.8 270 14.3
2009-03-03 08:20:41 51°15.237 2°45.995 271.1 12.8 270 14.5
2009-03-03 08:20:46 51°15.237 2°45.966 270.8 12.8 270 14.5
2009-03-03 08:20:50 51°15.237 2°45.944 270.8 12.8 270 14.6
2009-03-03 08:20:56 51°15.237 2°45.91 270.9 12.7 269 14.8
2009-03-03 08:21:01 51°15.237 2°45.882 270.7 12.8 270 14.9
2009-03-03 08:21:05 51°15.237 2°45.859 270.7 12.8 269 15
2009-03-03 08:21:10 51°15.237 2°45.831 270.6 12.7 269 15
2009-03-03 08:21:16 51°15.236 2°45.797 270.5 12.7 269 15.3
2009-03-03 08:21:21 51°15.236 2°45.769 270.4 12.8 269 15.3
2009-03-03 08:21:26 51°15.236 2°45.741 270.6 12.7 270 15.4
2009-03-03 08:21:31 51°15.236 2°45.713 270.5 12.7 269 15.5
2009-03-03 08:21:36 51°15.236 2°45.685 270.3 12.7 269 15.5
2009-03-03 08:21:41 51°15.235 2°45.657 270.3 12.7 269 15.5
2009-03-03 08:21:45 51°15.235 2°45.634 270.5 12.7 269 15.6
2009-03-03 08:21:50 51°15.235 2°45.606 270.5 12.7 269 15.7
2009-03-03 08:21:56 51°15.235 2°45.572 270.6 12.7 270 15.9
2009-03-03 08:22:01 51°15.235 2°45.544 270.6 12.7 270 15.8
2009-03-03 08:22:05 51°15.235 2°45.522 270.8 12.7 270 15.9
2009-03-03 08:22:11 51°15.235 2°45.488 270.9 12.7 270 16
2009-03-03 08:22:16 51°15.235 2°45.46 271.1 12.7 270 16.2
2009-03-03 08:22:21 51°15.235 2°45.432 271 12.7 270 16.2
2009-03-03 08:22:26 51°15.235 2°45.404 270.8 12.7 270 16.3
2009-03-03 08:22:31 51°15.235 2°45.377 270.7 12.7 270 16.4
2009-03-03 08:22:36 51°15.234 2°45.348 270.5 12.7 269 16.5
2009-03-03 08:22:41 51°15.234 2°45.32 270.2 12.7 269 16.5
2009-03-03 08:22:45 51°15.234 2°45.298 270.3 12.7 269 16.6
2009-03-03 08:22:51 51°15.234 2°45.264 270.8 12.7 270 16.7
2009-03-03 08:22:56 51°15.233 2°45.236 270.8 12.8 270 16.8
2009-03-03 08:23:01 51°15.233 2°45.208 270.8 12.7 270 17
2009-03-03 08:23:06 51°15.233 2°45.18 270.8 12.8 269 17.1
2009-03-03 08:23:10 51°15.233 2°45.158 270 12.8 268 17.1
2009-03-03 08:23:16 51°15.232 2°45.124 269.6 12.8 268 17.2
2009-03-03 08:23:21 51°15.231 2°45.096 269.4 12.8 269 17.1
2009-03-03 08:23:26 51°15.232 2°45.067 270.1 12.8 270 17.3
2009-03-03 08:23:30 51°15.231 2°45.045 270.3 12.8 270 17.4
2009-03-03 08:23:36 51°15.232 2°45.011 270.8 12.8 271 17.5
2009-03-03 08:23:41 51°15.232 2°44.983 271.2 12.8 271 17.5
2009-03-03 08:23:45 51°15.232 2°44.96 271.3 12.8 271 17.7
2009-03-03 08:23:50 51°15.232 2°44.932 271.2 12.8 271 17.8
2009-03-03 08:23:56 51°15.232 2°44.898 270.6 12.8 270 17.9
2009-03-03 08:24:01 51°15.233 2°44.87 270.7 12.9 271 18
2009-03-03 08:24:06 51°15.233 2°44.841 270.4 12.9 270 18.1
2009-03-03 08:24:11 51°15.233 2°44.813 270.6 12.9 271 18.1
2009-03-03 08:24:16 51°15.233 2°44.784 270.4 12.8 270 18.2
2009-03-03 08:24:21 51°15.232 2°44.756 270 12.9 269 18.2
2009-03-03 08:24:25 51°15.232 2°44.733 269.2 12.9 269 18.2
2009-03-03 08:24:30 51°15.231 2°44.704 268.5 12.9 268 18.2
2009-03-03 08:24:36 51°15.231 2°44.67 268.2 12.9 268 18.2
2009-03-03 08:24:41 51°15.23 2°44.642 268.5 12.9 269 18.2
2009-03-03 08:24:45 51°15.23 2°44.619 269.2 12.9 269 18.2
2009-03-03 08:24:51 51°15.23 2°44.584 269.4 12.9 269 18.3
2009-03-03 08:24:56 51°15.229 2°44.556 268.6 12.9 268 18.1
2009-03-03 08:25:01 51°15.229 2°44.527 268.3 12.9 269 18.1
2009-03-03 08:25:06 51°15.229 2°44.499 269.3 12.9 270 18.1
2009-03-03 08:25:10 51°15.229 2°44.476 269.7 12.9 270 18
2009-03-03 08:25:16 51°15.229 2°44.441 270.4 12.9 271 17.8
2009-03-03 08:25:21 51°15.229 2°44.413 270.8 12.9 270 17.8
2009-03-03 08:25:25 51°15.229 2°44.39 270.8 13 271 17.6
2009-03-03 08:25:30 51°15.229 2°44.361 270.8 13 271 17.5
2009-03-03 08:25:36 51°15.229 2°44.326 271.1 12.9 271 17.2
2009-03-03 08:25:41 51°15.23 2°44.298 271.1 12.9 271 17.2
2009-03-03 08:25:46 51°15.23 2°44.269 271.4 12.9 271 17.1
2009-03-03 08:25:51 51°15.23 2°44.241 271.4 12.9 271 16.9
2009-03-03 08:25:56 51°15.231 2°44.212 271.1 12.9 271 16.7
2009-03-03 08:26:01 51°15.231 2°44.184 271 12.9 270 16.4
2009-03-03 08:26:06 51°15.231 2°44.155 270.9 12.9 271 16.3
2009-03-03 08:26:10 51°15.231 2°44.132 270.6 12.9 270 16.2
2009-03-03 08:26:16 51°15.231 2°44.098 269.7 12.9 269 16
2009-03-03 08:26:21 51°15.231 2°44.07 269.2 12.9 269 15.7
2009-03-03 08:26:25 51°15.231 2°44.047 268.9 12.9 269 15.5
2009-03-03 08:26:31 51°15.231 2°44.013 268.9 12.9 269 15.4
2009-03-03 08:26:36 51°15.231 2°43.985 269.9 12.9 271 15.1
2009-03-03 08:26:41 51°15.231 2°43.956 270 12.8 269 14.8
2009-03-03 08:26:46 51°15.231 2°43.928 269.1 12.8 269 14.5
2009-03-03 08:26:51 51°15.23 2°43.9 268.6 12.8 268 14.4
2009-03-03 08:26:56 51°15.23 2°43.872 268.4 12.7 269 14.2
2009-03-03 08:27:01 51°15.229 2°43.844 268.3 12.7 268 14.1
2009-03-03 08:27:05 51°15.228 2°43.822 268 12.7 268 14
2009-03-03 08:27:10 51°15.228 2°43.794 268.1 12.6 268 13.7
2009-03-03 08:27:16 51°15.228 2°43.76 268.3 12.6 269 13.8
2009-03-03 08:27:21 51°15.227 2°43.733 268.6 12.6 269 13.6
2009-03-03 08:27:26 51°15.227 2°43.705 268.6 12.7 269 13.5
2009-03-03 08:27:30 51°15.226 2°43.682 268.6 12.6 269 13.5
2009-03-03 08:27:36 51°15.226 2°43.649 268.6 12.6 269 13.3
2009-03-03 08:27:41 51°15.226 2°43.621 268.9 12.6 269 13.3
2009-03-03 08:27:46 51°15.225 2°43.593 268.7 12.7 269 13.3
2009-03-03 08:27:50 51°15.225 2°43.57 269.1 12.7 270 13.2
2009-03-03 08:27:56 51°15.225 2°43.537 269.7 12.6 270 11.8
2009-03-03 08:28:01 51°15.225 2°43.509 269.4 12.6 269 11.7
2009-03-03 08:28:05 51°15.224 2°43.487 268.8 12.6 269 12.3
2009-03-03 08:28:10 51°15.224 2°43.459 268.8 12.6 269 12.6
2009-03-03 08:28:16 51°15.224 2°43.425 268.9 12.6 269 12.8
2009-03-03 08:28:21 51°15.223 2°43.397 269.1 12.7 269 12.9
2009-03-03 08:28:26 51°15.223 2°43.369 269.3 12.7 270 13
2009-03-03 08:28:31 51°15.223 2°43.341 269 12.7 269 13
2009-03-03 08:28:36 51°15.223 2°43.313 269 12.7 270 13
2009-03-03 08:28:41 51°15.222 2°43.285 269.3 12.7 270 13
2009-03-03 08:28:45 51°15.222 2°43.262 269.5 12.7 270 13
2009-03-03 08:28:50 51°15.222 2°43.234 269.4 12.7 270 13.1
2009-03-03 08:28:56 51°15.223 2°43.2 270.1 12.7 271 13
2009-03-03 08:29:01 51°15.223 2°43.172 270.7 12.7 271 13.1
2009-03-03 08:29:05 51°15.223 2°43.15 271.5 12.7 272 13.2
2009-03-03 08:29:11 51°15.224 2°43.116 271.6 12.8 271 13.4
2009-03-03 08:29:16 51°15.225 2°43.088 272.1 12.7 272 13.5
2009-03-03 08:29:21 51°15.225 2°43.06 272.1 12.7 272 13.4
2009-03-03 08:29:26 51°15.226 2°43.032 272 12.7 272 13.5
2009-03-03 08:29:30 51°15.226 2°43.009 272.1 12.7 272 13.4
2009-03-03 08:29:36 51°15.227 2°42.975 272.1 12.7 272 13.6
2009-03-03 08:29:41 51°15.227 2°42.947 272.2 12.7 271 13.5
2009-03-03 08:29:46 51°15.228 2°42.919 271.7 12.7 271 13.4
2009-03-03 08:29:50 51°15.227 2°42.897 270.8 12.7 270 13
2009-03-03 08:29:56 51°15.228 2°42.863 270.3 12.7 270 12.4
2009-03-03 08:30:01 51°15.227 2°42.835 269.7 12.7 269 11.9
2009-03-03 08:30:05 51°15.227 2°42.812 269.4 12.7 269 12.4
2009-03-03 08:30:10 51°15.227 2°42.784 269.1 12.7 269 12.8
2009-03-03 08:30:16 51°15.226 2°42.75 268.5 12.7 268 13
2009-03-03 08:30:21 51°15.225 2°42.722 268.3 12.7 268 13
2009-03-03 08:30:26 51°15.225 2°42.694 268.1 12.7 269 12.6
2009-03-03 08:30:30 51°15.225 2°42.671 267.9 12.7 268 13
2009-03-03 08:30:36 51°15.224 2°42.637 267.8 12.7 268 13.4
2009-03-03 08:30:41 51°15.223 2°42.609 267.8 12.7 269 13.5
2009-03-03 08:30:46 51°15.223 2°42.581 267.9 12.7 269 13.5
2009-03-03 08:30:51 51°15.222 2°42.553 268 12.8 269 13.3
2009-03-03 08:30:56 51°15.222 2°42.525 268 12.7 268 13.4
2009-03-03 08:31:01 51°15.222 2°42.497 268.1 12.7 269 13.1
2009-03-03 08:31:05 51°15.221 2°42.474 267.9 12.7 268 12
2009-03-03 08:31:10 51°15.22 2°42.446 267.6 12.7 268 10.1
2009-03-03 08:31:16 51°15.22 2°42.413 267.6 12.6 268 11.9
2009-03-03 08:31:21 51°15.219 2°42.385 267.6 12.7 268 12.3
2009-03-03 08:31:26 51°15.218 2°42.357 267.8 12.7 268 12.3
2009-03-03 08:31:31 51°15.218 2°42.329 268.2 12.7 269 12.4
2009-03-03 08:31:36 51°15.217 2°42.3 267.2 12.7 266 11.5
2009-03-03 08:31:41 51°15.216 2°42.273 266.7 12.6 268 10.4
2009-03-03 08:31:46 51°15.215 2°42.245 266.5 12.6 266 11.4
2009-03-03 08:31:50 51°15.214 2°42.223 265.7 12.6 266 11.7
2009-03-03 08:31:56 51°15.213 2°42.189 265.7 12.7 267 11.5
2009-03-03 08:32:01 51°15.212 2°42.161 266.3 12.7 267 11.4
2009-03-03 08:32:05 51°15.212 2°42.138 267.2 12.7 268 11.6
2009-03-03 08:32:10 51°15.211 2°42.111 267.2 12.7 268 11.6
2009-03-03 08:32:16 51°15.21 2°42.077 266.6 12.7 267 11.7
2009-03-03 08:32:21 51°15.209 2°42.049 266 12.7 267 11.8
2009-03-03 08:32:26 51°15.208 2°42.021 266 12.7 268 11.6
2009-03-03 08:32:30 51°15.207 2°41.998 266.5 12.7 268 11.7
2009-03-03 08:32:36 51°15.207 2°41.965 267.4 12.7 269 11.7
2009-03-03 08:32:41 51°15.207 2°41.937 267.8 12.7 269 11.6
2009-03-03 08:32:46 51°15.206 2°41.909 268.2 12.7 269 11.6
2009-03-03 08:32:51 51°15.206 2°41.88 268.3 12.7 269 11.6
2009-03-03 08:32:56 51°15.205 2°41.853 267.9 12.7 268 11.3
2009-03-03 08:33:01 51°15.205 2°41.824 267.6 12.7 268 11.4
2009-03-03 08:33:05 51°15.205 2°41.802 267.9 12.7 269 11.5
2009-03-03 08:33:10 51°15.204 2°41.774 268.2 12.7 269 11.6
2009-03-03 08:33:16 51°15.204 2°41.74 268.2 12.7 269 11.6
2009-03-03 08:33:21 51°15.204 2°41.712 268.3 12.7 269 11.7
2009-03-03 08:33:26 51°15.204 2°41.684 268.3 12.7 270 11.6
2009-03-03 08:33:31 51°15.203 2°41.655 268.1 12.7 267 11.7
2009-03-03 08:33:36 51°15.202 2°41.628 267.1 12.6 268 11.6
2009-03-03 08:33:41 51°15.201 2°41.6 266.5 12.6 267 11.6
2009-03-03 08:33:46 51°15.2 2°41.571 265.9 12.7 268 11.6
2009-03-03 08:33:50 51°15.2 2°41.549 266.8 12.7 268 11.6
2009-03-03 08:33:56 51°15.199 2°41.516 266.6 12.7 267 11.6
2009-03-03 08:34:01 51°15.199 2°41.487 266.6 12.6 269 11.4
2009-03-03 08:34:06 51°15.199 2°41.46 267.4 12.6 269 11.4
2009-03-03 08:34:10 51°15.198 2°41.437 267.9 12.6 269 11.3
2009-03-03 08:34:16 51°15.198 2°41.404 267.2 12.6 267 11.2
2009-03-03 08:34:21 51°15.197 2°41.376 266.4 12.6 268 11.2
2009-03-03 08:34:25 51°15.196 2°41.354 265.8 12.6 267 11.1
2009-03-03 08:34:30 51°15.196 2°41.326 265.5 12.6 268 11.1
2009-03-03 08:34:36 51°15.195 2°41.292 266.3 12.6 268 10.9
2009-03-03 08:34:41 51°15.195 2°41.265 266.8 12.6 269 10.9
2009-03-03 08:34:46 51°15.195 2°41.237 267.4 12.6 269 10.8
2009-03-03 08:34:51 51°15.194 2°41.209 267.6 12.7 269 10.9
2009-03-03 08:34:56 51°15.194 2°41.181 267.6 12.7 269 10.8
2009-03-03 08:35:01 51°15.194 2°41.153 268.1 12.7 268 11
2009-03-03 08:35:05 51°15.193 2°41.13 267.9 12.7 269 10.9
2009-03-03 08:35:10 51°15.193 2°41.102 268 12.7 269 11
2009-03-03 08:35:16 51°15.192 2°41.068 268.2 12.7 268 11.1
2009-03-03 08:35:21 51°15.192 2°41.04 267.9 12.7 269 11
2009-03-03 08:35:26 51°15.192 2°41.012 267.9 12.7 268 11.1
2009-03-03 08:35:31 51°15.191 2°40.984 267.8 12.7 268 11.1
2009-03-03 08:35:36 51°15.191 2°40.956 267.7 12.7 269 11.1
2009-03-03 08:35:41 51°15.19 2°40.928 267.9 12.7 268 11.4
2009-03-03 08:35:46 51°15.19 2°40.9 267.6 12.7 268 11.4
2009-03-03 08:35:51 51°15.189 2°40.872 267 12.7 267 11.5
2009-03-03 08:35:56 51°15.188 2°40.844 266.6 12.7 269 11.5
2009-03-03 08:36:01 51°15.188 2°40.815 267.2 12.7 268 11.5
2009-03-03 08:36:05 51°15.187 2°40.793 267.8 12.7 269 11.5
2009-03-03 08:36:10 51°15.187 2°40.765 267.9 12.7 269 11.4
2009-03-03 08:36:16 51°15.187 2°40.731 268.3 12.7 269 11.3
2009-03-03 08:36:21 51°15.186 2°40.703 267.9 12.7 269 11.2
2009-03-03 08:36:25 51°15.186 2°40.681 267.9 12.7 269 11.3
2009-03-03 08:36:31 51°15.186 2°40.647 268 12.7 269 11.4
2009-03-03 08:36:36 51°15.186 2°40.62 268.3 12.6 269 11.3
2009-03-03 08:36:41 51°15.185 2°40.592 268.2 12.6 269 11.6
2009-03-03 08:36:46 51°15.185 2°40.564 267.8 12.7 269 11.4
2009-03-03 08:36:50 51°15.184 2°40.541 267.8 12.6 269 11.5
2009-03-03 08:36:56 51°15.184 2°40.508 267.7 12.6 269 11.5
2009-03-03 08:37:01 51°15.183 2°40.48 267.8 12.7 269 11.9
2009-03-03 08:37:06 51°15.183 2°40.452 267.9 12.7 269 11.6
2009-03-03 08:37:10 51°15.183 2°40.43 267.9 12.7 269 11.7
2009-03-03 08:37:16 51°15.182 2°40.396 267.9 12.6 269 11.9
2009-03-03 08:37:21 51°15.182 2°40.368 268 12.6 268 11.9
2009-03-03 08:37:25 51°15.181 2°40.346 266.6 12.6 267 12.5
2009-03-03 08:37:30 51°15.18 2°40.318 266.2 12.6 267 12.6
2009-03-03 08:37:36 51°15.179 2°40.285 266.7 12.6 268 12.9
2009-03-03 08:37:41 51°15.178 2°40.257 267.2 12.6 268 13
2009-03-03 08:37:46 51°15.177 2°40.229 267.5 12.6 268 13
2009-03-03 08:37:51 51°15.177 2°40.201 267.6 12.6 268 13.2
2009-03-03 08:37:56 51°15.176 2°40.173 267.7 12.6 268 13.5
2009-03-03 08:38:01 51°15.175 2°40.146 267.6 12.6 268 13.5
2009-03-03 08:38:06 51°15.174 2°40.118 267.4 12.6 267 13.8
2009-03-03 08:38:11 51°15.174 2°40.09 267.2 12.6 267 13.9
2009-03-03 08:38:16 51°15.173 2°40.062 267.1 12.6 267 13.5
2009-03-03 08:38:21 51°15.172 2°40.034 267.2 12.6 267 13.8
2009-03-03 08:38:25 51°15.171 2°40.012 267.3 12.6 268 14.2
2009-03-03 08:38:30 51°15.171 2°39.984 267.9 12.6 268 14.6
2009-03-03 08:38:36 51°15.17 2°39.951 268 12.6 267 14.5
2009-03-03 08:38:41 51°15.169 2°39.923 267.9 12.6 267 14.5
2009-03-03 08:38:46 51°15.168 2°39.895 267.8 12.6 267 14.8
2009-03-03 08:38:51 51°15.167 2°39.867 267.3 12.7 267 14.9
2009-03-03 08:38:56 51°15.166 2°39.839 267.2 12.6 267 15.1
2009-03-03 08:39:01 51°15.165 2°39.811 267.4 12.7 267 15.3
2009-03-03 08:39:06 51°15.164 2°39.783 267.5 12.7 267 15.3
2009-03-03 08:39:10 51°15.163 2°39.761 267.4 12.7 267 15.4
2009-03-03 08:39:16 51°15.162 2°39.727 267.6 12.7 267 15.4
2009-03-03 08:39:21 51°15.162 2°39.699 267.6 12.7 267 15.7
2009-03-03 08:39:26 51°15.161 2°39.671 267.6 12.7 267 16.2
2009-03-03 08:39:30 51°15.16 2°39.648 267.4 12.7 267 16.1
2009-03-03 08:39:36 51°15.159 2°39.615 267.2 12.7 267 16.5
2009-03-03 08:39:41 51°15.158 2°39.587 267.5 12.7 268 16.2
2009-03-03 08:39:45 51°15.157 2°39.564 267.6 12.7 267 16.7
2009-03-03 08:39:51 51°15.156 2°39.531 267.5 12.8 268 16.8
2009-03-03 08:39:56 51°15.156 2°39.502 267.4 12.7 267 16.5
2009-03-03 08:40:01 51°15.155 2°39.474 267.4 12.8 268 17
2009-03-03 08:40:06 51°15.154 2°39.446 267.8 12.7 268 17
2009-03-03 08:40:11 51°15.154 2°39.418 267.9 12.7 268 17
2009-03-03 08:40:16 51°15.153 2°39.39 267.8 12.8 268 17.2
2009-03-03 08:40:21 51°15.152 2°39.362 267.4 12.7 267 17.4
2009-03-03 08:40:25 51°15.151 2°39.339 267.2 12.7 267 17.3
2009-03-03 08:40:30 51°15.15 2°39.311 267.2 12.8 267 17.5
2009-03-03 08:40:36 51°15.149 2°39.277 267 12.8 267 17.3
2009-03-03 08:40:41 51°15.148 2°39.249 267.1 12.8 267 17.4
2009-03-03 08:40:45 51°15.148 2°39.226 267.5 12.8 268 17.7
2009-03-03 08:40:51 51°15.147 2°39.192 267.4 12.8 267 17.7
2009-03-03 08:40:56 51°15.146 2°39.164 267 12.7 267 17.6
2009-03-03 08:41:01 51°15.145 2°39.136 267.1 12.8 267 17.7
2009-03-03 08:41:06 51°15.144 2°39.108 267.2 12.8 267 17.7
2009-03-03 08:41:11 51°15.143 2°39.08 267.1 12.8 267 17.4
2009-03-03 08:41:16 51°15.143 2°39.051 267 12.8 268 17.5
2009-03-03 08:41:21 51°15.142 2°39.023 267.2 12.8 268 17.6
2009-03-03 08:41:25 51°15.143 2°39.001 269.4 12.8 273 17.6
2009-03-03 08:41:30 51°15.143 2°38.973 271.7 12.7 272 17.5
2009-03-03 08:41:36 51°15.147 2°38.939 275.5 12.6 281 17.6
2009-03-03 08:41:41 51°15.151 2°38.912 281.7 12.6 285 17.4
2009-03-03 08:41:46 51°15.157 2°38.886 286.5 12.6 287 17.6
2009-03-03 08:41:51 51°15.162 2°38.859 288.4 12.6 287 17.5
2009-03-03 08:41:56 51°15.168 2°38.833 290.9 12.8 291 17.5
2009-03-03 08:42:01 51°15.175 2°38.807 292.2 12.8 291 17.3
2009-03-03 08:42:06 51°15.182 2°38.781 293.4 12.8 293 17.4
2009-03-03 08:42:11 51°15.189 2°38.754 294.7 12.8 293 17.2
2009-03-03 08:42:16 51°15.196 2°38.728 295 12.9 292 17.1
2009-03-03 08:42:21 51°15.202 2°38.702 294.8 12.8 292 16.9
2009-03-03 08:42:26 51°15.21 2°38.676 295.1 12.8 293 16.9
2009-03-03 08:42:30 51°15.215 2°38.655 294.5 12.9 291 16.6
2009-03-03 08:42:36 51°15.222 2°38.622 293.2 12.9 291 16.4
2009-03-03 08:42:41 51°15.229 2°38.596 292.7 12.9 290 16.3
2009-03-03 08:42:45 51°15.234 2°38.574 291.8 13 290 15.8
2009-03-03 08:42:51 51°15.241 2°38.542 291.5 13 290 15.7
2009-03-03 08:42:56 51°15.247 2°38.515 291.1 12.9 289 15.3
2009-03-03 08:43:01 51°15.253 2°38.488 290.9 12.8 289 14.9
2009-03-03 08:43:06 51°15.259 2°38.461 290.5 12.9 289 14.6
2009-03-03 08:43:11 51°15.264 2°38.434 287.8 12.9 287 14.3
2009-03-03 08:43:16 51°15.269 2°38.407 287.3 12.6 290 13.9
2009-03-03 08:43:21 51°15.277 2°38.382 292.9 12.6 296 13.5
2009-03-03 08:43:26 51°15.285 2°38.358 298.3 12.7 298 13.1
2009-03-03 08:43:31 51°15.294 2°38.333 300.5 12.7 299 13
2009-03-03 08:43:36 51°15.302 2°38.308 300.5 12.8 298 12.7
2009-03-03 08:43:41 51°15.311 2°38.284 300.9 12.7 301 12.3
2009-03-03 08:43:45 51°15.319 2°38.265 302.7 12.7 301 11.6
2009-03-03 08:43:50 51°15.329 2°38.241 305.1 12.7 304 11.8
2009-03-03 08:43:56 51°15.339 2°38.212 303.5 12.8 299 11.3
2009-03-03 08:44:01 51°15.349 2°38.188 303.5 12.7 304 11.1
2009-03-03 08:44:06 51°15.359 2°38.164 304.9 12.9 302 11
2009-03-03 08:44:11 51°15.368 2°38.14 304.5 12.8 301 10.9
2009-03-03 08:44:16 51°15.377 2°38.116 304.2 12.8 302 10.7
2009-03-03 08:44:21 51°15.386 2°38.092 304.9 12.8 302 10.7
2009-03-03 08:44:26 51°15.396 2°38.067 304.7 12.9 301 10.4
2009-03-03 08:44:30 51°15.403 2°38.048 303.7 13 300 10.6
2009-03-03 08:44:36 51°15.414 2°38.018 303 12.9 300 10.5
2009-03-03 08:44:41 51°15.422 2°37.993 302.5 13 299 10.4
2009-03-03 08:44:46 51°15.431 2°37.968 302.3 13 300 10.2
2009-03-03 08:44:50 51°15.438 2°37.948 301.8 13 298 10.2
2009-03-03 08:44:56 51°15.448 2°37.918 300.8 12.9 298 10.1
2009-03-03 08:45:01 51°15.456 2°37.892 300.3 13 297 9.8
2009-03-03 08:45:05 51°15.463 2°37.872 299.7 13 297 10.2
2009-03-03 08:45:11 51°15.472 2°37.841 299.2 12.9 296 9.6
2009-03-03 08:45:16 51°15.48 2°37.816 299.2 13 297 10.3
2009-03-03 08:45:21 51°15.488 2°37.79 299.1 13 297 9.7
2009-03-03 08:45:26 51°15.497 2°37.765 299.6 13 297 9.6
2009-03-03 08:45:30 51°15.503 2°37.744 300.2 13 298 9.8
2009-03-03 08:45:36 51°15.513 2°37.714 300.5 13 297 9.7
2009-03-03 08:45:41 51°15.522 2°37.688 300.5 13 298 9.2
2009-03-03 08:45:46 51°15.53 2°37.663 300.4 13 297 9.7
2009-03-03 08:45:50 51°15.537 2°37.642 300.1 13 298 9.9
2009-03-03 08:45:56 51°15.547 2°37.612 300.3 12.9 298 8.9
2009-03-03 08:46:01 51°15.555 2°37.586 300.6 13.1 298 10.1
2009-03-03 08:46:05 51°15.562 2°37.566 300.6 13.1 298 10.7
2009-03-03 08:46:10 51°15.571 2°37.54 300.7 13.1 299 10.9
2009-03-03 08:46:16 51°15.582 2°37.51 300.9 13.1 299 10.1
2009-03-03 08:46:21 51°15.59 2°37.484 301.1 13.1 298 9.7
2009-03-03 08:46:26 51°15.598 2°37.459 300.7 13 298 11.4
2009-03-03 08:46:30 51°15.605 2°37.439 300.5 13 298 11.1
2009-03-03 08:46:36 51°15.615 2°37.408 300.5 13.1 298 8.5
2009-03-03 08:46:41 51°15.624 2°37.382 300.4 13.1 297 10.6
2009-03-03 08:46:46 51°15.632 2°37.357 300.1 13 298 11.4
2009-03-03 08:46:51 51°15.641 2°37.332 300.6 13.1 298 11.6
2009-03-03 08:46:56 51°15.649 2°37.306 300.3 13.2 297 11.8
2009-03-03 08:47:01 51°15.657 2°37.28 299.5 13.1 296 11.9
2009-03-03 08:47:05 51°15.664 2°37.259 299.2 13 297 12
2009-03-03 08:47:10 51°15.671 2°37.233 296.7 13.1 292 12
2009-03-03 08:47:16 51°15.68 2°37.201 295.5 13 294 12
2009-03-03 08:47:21 51°15.686 2°37.174 294.4 13.1 290 12
2009-03-03 08:47:26 51°15.693 2°37.148 292.7 12.9 292 11.9
2009-03-03 08:47:31 51°15.699 2°37.121 291.9 13 290 11.8
2009-03-03 08:47:36 51°15.705 2°37.094 291.1 12.9 290 11.9
2009-03-03 08:47:41 51°15.71 2°37.067 290.7 12.9 289 11.6
2009-03-03 08:47:46 51°15.716 2°37.039 289.9 12.9 288 11.7
2009-03-03 08:47:50 51°15.721 2°37.018 289.9 12.9 289 10.8
2009-03-03 08:47:56 51°15.727 2°36.985 289.1 12.9 287 9.6
2009-03-03 08:48:01 51°15.732 2°36.958 289 12.9 288 10.5
2009-03-03 08:48:05 51°15.737 2°36.936 288.7 12.9 287 12.1
2009-03-03 08:48:10 51°15.742 2°36.909 288.3 13 287 12.9
2009-03-03 08:48:16 51°15.748 2°36.875 287.5 13.1 285 13.6
2009-03-03 08:48:21 51°15.753 2°36.848 287 13 286 13.9
2009-03-03 08:48:26 51°15.757 2°36.82 286.2 13 284 14.7
2009-03-03 08:48:30 51°15.76 2°36.797 284.9 13 283 15.1
2009-03-03 08:48:36 51°15.766 2°36.764 285.8 13 285 15.7
2009-03-03 08:48:41 51°15.77 2°36.736 285 13 283 16.6
2009-03-03 08:48:46 51°15.775 2°36.708 285.3 13 286 16.7
2009-03-03 08:48:51 51°15.779 2°36.68 285.7 13 284 17.6
2009-03-03 08:48:56 51°15.784 2°36.653 285.5 13 285 17.9
2009-03-03 08:49:01 51°15.788 2°36.625 285.2 13 284 18.7
2009-03-03 08:49:05 51°15.791 2°36.602 284.4 13 283 19.3
2009-03-03 08:49:10 51°15.795 2°36.574 284.1 13 282 20.1
2009-03-03 08:49:16 51°15.8 2°36.54 283.7 13 283 20.7
2009-03-03 08:49:21 51°15.804 2°36.512 283.6 13 282 21.2
2009-03-03 08:49:26 51°15.808 2°36.484 283.2 13 282 21.9
2009-03-03 08:49:31 51°15.811 2°36.456 282.3 13 280 22.3
2009-03-03 08:49:36 51°15.814 2°36.428 281.4 13 281 23
2009-03-03 08:49:41 51°15.817 2°36.399 280.9 12.9 280 23.4
2009-03-03 08:49:46 51°15.821 2°36.371 280 12.9 281 23.9
2009-03-03 08:49:50 51°15.825 2°36.349 283.2 12.8 287 24.7
2009-03-03 08:49:56 51°15.833 2°36.318 289.6 12.6 293 24.9
2009-03-03 08:50:01 51°15.841 2°36.294 295.2 12.6 299 25.4
2009-03-03 08:50:06 51°15.851 2°36.271 301.9 12.5 304 25.7
2009-03-03 08:50:10 51°15.859 2°36.252 305.4 12.6 303 25.8
2009-03-03 08:50:16 51°15.871 2°36.225 307.3 12.6 308 26
2009-03-03 08:50:21 51°15.883 2°36.205 312.5 12.6 313 26
2009-03-03 08:50:25 51°15.893 2°36.189 317.3 12.6 317 26.3
2009-03-03 08:50:30 51°15.906 2°36.17 318.6 12.6 316 26.2
2009-03-03 08:50:36 51°15.922 2°36.149 322 12.5 322 26.4
2009-03-03 08:50:41 51°15.936 2°36.132 325.2 12.6 324 26.3
2009-03-03 08:50:46 51°15.951 2°36.116 327.4 12.6 325 26.1
2009-03-03 08:50:51 51°15.966 2°36.102 330.1 12.7 328 26.2
2009-03-03 08:50:56 51°15.981 2°36.087 332 12.7 329 26.3
2009-03-03 08:51:01 51°15.996 2°36.073 333.1 12.7 331 26.2
2009-03-03 08:51:05 51°16.008 2°36.062 334.4 12.7 331 26.1
2009-03-03 08:51:10 51°16.024 2°36.05 335 12.6 333 26.2
2009-03-03 08:51:16 51°16.043 2°36.034 335.9 12.6 332 26.3
2009-03-03 08:51:21 51°16.059 2°36.022 336.5 12.7 335 26.1
2009-03-03 08:51:26 51°16.074 2°36.009 336.9 12.7 333 25.9
2009-03-03 08:51:31 51°16.09 2°35.997 336.9 12.6 335 26
2009-03-03 08:51:36 51°16.106 2°35.985 337.5 12.6 333 25.9
2009-03-03 08:51:41 51°16.122 2°35.973 337.6 12.6 337 26.1
2009-03-03 08:51:46 51°16.138 2°35.963 340.1 12.7 338 26.1
2009-03-03 08:51:51 51°16.154 2°35.951 340.5 12.7 337 26.1
2009-03-03 08:51:56 51°16.171 2°35.942 341.6 12.7 340 26.3
2009-03-03 08:52:01 51°16.187 2°35.931 341.9 12.7 338 26.4
2009-03-03 08:52:05 51°16.2 2°35.924 342 12.6 341 26.2
2009-03-03 08:52:10 51°16.217 2°35.914 342.8 12.7 339 26
2009-03-03 08:52:16 51°16.237 2°35.903 343.5 12.7 342 26.1
2009-03-03 08:52:21 51°16.254 2°35.896 345.6 12.7 344 26
2009-03-03 08:52:25 51°16.267 2°35.889 346.4 12.6 344 25.9
2009-03-03 08:52:31 51°16.287 2°35.881 347.7 12.6 346 26
2009-03-03 08:52:36 51°16.304 2°35.874 348.5 12.5 345 25.4
2009-03-03 08:52:41 51°16.321 2°35.868 348.7 12.5 348 26.1
2009-03-03 08:52:46 51°16.338 2°35.862 349.8 12.5 346 26.2
2009-03-03 08:52:50 51°16.351 2°35.856 349.2 12.4 347 26.2
2009-03-03 08:52:56 51°16.371 2°35.848 349.1 12.3 346 26.3
2009-03-03 08:53:01 51°16.388 2°35.842 350 12.3 348 26.3
2009-03-03 08:53:06 51°16.405 2°35.836 350.3 12.3 346 25.9
2009-03-03 08:53:10 51°16.418 2°35.831 349.9 12.3 348 25.7
2009-03-03 08:53:16 51°16.438 2°35.824 350.4 12.3 346 25.8
2009-03-03 08:53:21 51°16.455 2°35.818 350.7 12.3 348 26.2
2009-03-03 08:53:25 51°16.468 2°35.813 350.3 12.3 346 26.3
2009-03-03 08:53:31 51°16.488 2°35.805 350.3 12.3 347 26.5
2009-03-03 08:53:36 51°16.505 2°35.8 350.8 12.3 347 26.5
2009-03-03 08:53:41 51°16.521 2°35.794 351 12.3 347 26.2
2009-03-03 08:53:46 51°16.538 2°35.788 351.2 12.3 348 26.3
2009-03-03 08:53:51 51°16.554 2°35.782 351 12.3 347 27.4
2009-03-03 08:53:56 51°16.571 2°35.776 350.7 12.3 347 26.2
2009-03-03 08:54:01 51°16.588 2°35.769 350.6 12.4 346 26.3
2009-03-03 08:54:06 51°16.604 2°35.763 350.4 12.3 347 26.1
2009-03-03 08:54:11 51°16.621 2°35.757 350.6 12.3 347 25.9
2009-03-03 08:54:16 51°16.637 2°35.75 350 12.3 347 25.9
2009-03-03 08:54:21 51°16.654 2°35.745 350.4 12.3 347 25.9
2009-03-03 08:54:25 51°16.667 2°35.739 350.6 12.2 346 26.1
2009-03-03 08:54:31 51°16.687 2°35.732 350.6 12.3 347 26
2009-03-03 08:54:36 51°16.703 2°35.724 349.1 12.3 342 25.8
2009-03-03 08:54:41 51°16.72 2°35.716 347.2 12.2 344 25.7
2009-03-03 08:54:46 51°16.736 2°35.708 347 12.2 343 25.1
2009-03-03 08:54:51 51°16.752 2°35.699 346 12.2 342 24.7
2009-03-03 08:54:56 51°16.768 2°35.692 346.6 12.2 342 24.3
2009-03-03 08:55:01 51°16.784 2°35.682 346.1 12.3 341 23.9
2009-03-03 08:55:06 51°16.8 2°35.675 345.6 12.3 342 23.5
2009-03-03 08:55:10 51°16.813 2°35.667 345.9 12.3 341 22.6
2009-03-03 08:55:16 51°16.833 2°35.657 345.4 12.3 341 22.2
2009-03-03 08:55:21 51°16.849 2°35.648 345.5 12.3 342 21.2
2009-03-03 08:55:25 51°16.862 2°35.641 345.2 12.3 341 20.8
2009-03-03 08:55:30 51°16.878 2°35.632 345.3 12.3 341 20.1
2009-03-03 08:55:36 51°16.897 2°35.621 344.8 12.4 339 19.8
2009-03-03 08:55:41 51°16.914 2°35.612 344.1 12.3 342 18.8
2009-03-03 08:55:46 51°16.93 2°35.603 344.8 12.3 340 18.1
2009-03-03 08:55:51 51°16.946 2°35.593 344.3 12.3 339 17.4
2009-03-03 08:55:56 51°16.962 2°35.584 343.9 12.4 340 17
2009-03-03 08:56:01 51°16.978 2°35.574 343.6 12.4 339 16.5
2009-03-03 08:56:06 51°16.994 2°35.565 343.8 12.3 340 15.7
2009-03-03 08:56:11 51°17.01 2°35.555 344.7 12.4 340 15.4
2009-03-03 08:56:16 51°17.026 2°35.544 342.7 12.4 338 14.7
2009-03-03 08:56:21 51°17.042 2°35.534 342.5 12.4 338 14.1
2009-03-03 08:56:25 51°17.054 2°35.525 341.8 12.5 336 13.8
2009-03-03 08:56:31 51°17.073 2°35.512 341.2 12.5 337 13.3
2009-03-03 08:56:36 51°17.089 2°35.5 340.9 12.4 335 12.5
2009-03-03 08:56:41 51°17.105 2°35.49 340.9 12.5 336 12.1
2009-03-03 08:56:46 51°17.121 2°35.478 340.5 12.5 335 12.2
2009-03-03 08:56:51 51°17.137 2°35.466 340.2 12.6 335 12.5
2009-03-03 08:56:56 51°17.152 2°35.454 340 12.6 335 12.4
2009-03-03 08:57:01 51°17.168 2°35.443 339.8 12.6 336 12.5
2009-03-03 08:57:06 51°17.184 2°35.431 340.2 12.6 335 11.7
2009-03-03 08:57:10 51°17.197 2°35.422 339.9 12.6 335 11
2009-03-03 08:57:16 51°17.216 2°35.407 339.8 12.6 334 11.3
2009-03-03 08:57:21 51°17.232 2°35.396 339.8 12.6 336 11.2
2009-03-03 08:57:26 51°17.247 2°35.384 340.4 12.5 335 10.7
2009-03-03 08:57:30 51°17.26 2°35.375 340.3 12.6 336 9.6
2009-03-03 08:57:36 51°17.279 2°35.361 340.4 12.6 334 10.1
2009-03-03 08:57:41 51°17.295 2°35.349 340.3 12.7 336 10.4
2009-03-03 08:57:45 51°17.308 2°35.34 340.3 12.8 335 10.4
2009-03-03 08:57:51 51°17.327 2°35.325 340.4 12.8 335 10.8
2009-03-03 08:57:56 51°17.344 2°35.314 340.5 12.8 336 11.2
2009-03-03 08:58:01 51°17.36 2°35.302 340.3 12.8 335 11.2
2009-03-03 08:58:06 51°17.376 2°35.29 340.1 12.8 336 10.7
2009-03-03 08:58:11 51°17.392 2°35.278 340.6 12.7 335 9.7
2009-03-03 08:58:16 51°17.408 2°35.266 340.5 12.7 334 10.7
2009-03-03 08:58:21 51°17.424 2°35.254 339.9 12.8 335 11.2
2009-03-03 08:58:25 51°17.436 2°35.242 337.6 12.8 329 11.9
2009-03-03 08:58:31 51°17.455 2°35.226 336 12.8 332 12.3
2009-03-03 08:58:36 51°17.47 2°35.211 334.7 12.9 328 12.7
2009-03-03 08:58:41 51°17.485 2°35.196 332.7 12.9 329 12.9
2009-03-03 08:58:46 51°17.5 2°35.181 332.1 12.9 327 12.8
2009-03-03 08:58:51 51°17.515 2°35.164 331 12.9 326 12.4
2009-03-03 08:58:56 51°17.53 2°35.149 330.5 12.8 326 11.8
2009-03-03 08:59:01 51°17.544 2°35.132 330 12.8 324 10.9
2009-03-03 08:59:06 51°17.559 2°35.116 328.9 12.8 324 9.2
2009-03-03 08:59:10 51°17.57 2°35.102 328.5 12.7 324 9.6
2009-03-03 08:59:16 51°17.587 2°35.082 328.9 12.7 325 11.9
2009-03-03 08:59:21 51°17.602 2°35.066 329.6 12.9 326 13.4
2009-03-03 08:59:25 51°17.614 2°35.053 330 13.1 326 14.3
2009-03-03 08:59:30 51°17.629 2°35.037 329.7 13.2 325 15.1
2009-03-03 08:59:36 51°17.647 2°35.017 329.2 13 326 16.2
2009-03-03 08:59:41 51°17.662 2°35.001 329.4 13 325 17
2009-03-03 08:59:46 51°17.676 2°34.984 329.3 13 325 17.6
2009-03-03 08:59:51 51°17.691 2°34.968 329 13 326 18
2009-03-03 08:59:56 51°17.706 2°34.951 329.4 12.9 324 18.2
2009-03-03 09:00:01 51°17.72 2°34.934 329.4 12.8 325 18.3
2009-03-03 09:00:05 51°17.732 2°34.92 327.3 12.8 321 17.9
2009-03-03 09:00:10 51°17.745 2°34.9 323.8 12.8 318 17.7
2009-03-03 09:00:16 51°17.761 2°34.878 321.7 12.8 317 16.3
2009-03-03 09:00:21 51°17.773 2°34.857 319.6 12.8 314 13.1
2009-03-03 09:00:25 51°17.783 2°34.841 318.1 12.8 312 11.3
2009-03-03 09:00:31 51°17.796 2°34.815 316.3 12.8 310 15.3
2009-03-03 09:00:36 51°17.808 2°34.793 314.9 12.9 309 17.4
2009-03-03 09:00:41 51°17.819 2°34.771 314.4 12.8 309 18.8
2009-03-03 09:00:46 51°17.829 2°34.747 310.7 12.7 302 20.4
2009-03-03 09:00:51 51°17.836 2°34.722 304.3 12.5 296 21.2
2009-03-03 09:00:56 51°17.843 2°34.697 296.8 12.5 289 22
2009-03-03 09:01:01 51°17.847 2°34.67 291.5 12.5 287 22.6
2009-03-03 09:01:05 51°17.852 2°34.649 290.1 12.7 288 22.9
2009-03-03 09:01:10 51°17.856 2°34.622 287.3 12.8 284 22.9
2009-03-03 09:01:16 51°17.862 2°34.589 286.1 12.8 285 23.5
2009-03-03 09:01:21 51°17.865 2°34.561 284.4 12.9 282 23.9
2009-03-03 09:01:25 51°17.868 2°34.538 283.3 12.9 283 24.2
2009-03-03 09:01:31 51°17.872 2°34.505 282.7 13 281 25
2009-03-03 09:01:36 51°17.877 2°34.477 283.9 13.1 284 25.1
2009-03-03 09:01:41 51°17.881 2°34.449 284.9 13.1 283 25.6
2009-03-03 09:01:46 51°17.886 2°34.421 285.3 13.1 285 26.8
2009-03-03 09:01:51 51°17.891 2°34.393 286.3 13.1 285 28
2009-03-03 09:01:56 51°17.895 2°34.365 286.2 13.1 285 27.9
2009-03-03 09:02:01 51°17.901 2°34.338 287.8 13.1 288 27.8
2009-03-03 09:02:05 51°17.905 2°34.315 288.4 13.1 287 27.9
2009-03-03 09:02:10 51°17.91 2°34.288 289.2 13.1 288 27.7
2009-03-03 09:02:16 51°17.917 2°34.255 290.1 13 288 27.6
2009-03-03 09:02:21 51°17.923 2°34.228 290.1 13 288 27.4
2009-03-03 09:02:26 51°17.928 2°34.201 290.5 13 289 27.5
2009-03-03 09:02:31 51°17.933 2°34.173 290.7 13 287 27.7
2009-03-03 09:02:36 51°17.939 2°34.146 290.1 13 288 27.7
2009-03-03 09:02:41 51°17.944 2°34.119 289.5 13 287 26.7
2009-03-03 09:02:46 51°17.949 2°34.091 289 13 287 27.4
2009-03-03 09:02:51 51°17.955 2°34.064 289.4 13 287 27.1
2009-03-03 09:02:56 51°17.96 2°34.037 290.4 13 288 27.3
2009-03-03 09:03:01 51°17.966 2°34.01 290.3 13 288 27.1
2009-03-03 09:03:06 51°17.971 2°33.982 289.8 13 287 26.8
2009-03-03 09:03:11 51°17.977 2°33.955 289.7 13 288 26.9
2009-03-03 09:03:16 51°17.983 2°33.928 290.5 13 289 26.5
2009-03-03 09:03:21 51°17.989 2°33.9 291.1 13 289 26.3
2009-03-03 09:03:26 51°17.995 2°33.873 291.8 13 290 25.9
2009-03-03 09:03:31 51°18.001 2°33.846 291.6 12.9 289 25.6
2009-03-03 09:03:36 51°18.007 2°33.819 291.3 12.9 290 25.9
2009-03-03 09:03:41 51°18.013 2°33.792 291.8 13 290 25.5
2009-03-03 09:03:45 51°18.018 2°33.77 291.7 13 289 26
2009-03-03 09:03:51 51°18.025 2°33.738 291.7 12.9 290 25.1
2009-03-03 09:03:56 51°18.031 2°33.71 291.5 12.9 290 25.5
2009-03-03 09:04:01 51°18.037 2°33.683 291.5 13 289 25.5
2009-03-03 09:04:06 51°18.043 2°33.656 291.4 13 289 24.6
2009-03-03 09:04:11 51°18.049 2°33.629 291.3 13 289 23.7
2009-03-03 09:04:16 51°18.055 2°33.602 291.1 12.9 288 24.3
2009-03-03 09:04:21 51°18.061 2°33.575 291 13 288 24.3